Time;durP1;ratioP1;P1;durP2;ratioP2;P2;SDS_P1;SDS_P2;PMS_P1;PMS_P2;Temp;Humidity;BMP_temperature;BMP_pressure;BME280_temperature;BME280_humidity;BME280_pressure;Samples;Min_cycle;Max_cycle;Signal;HPM_P1;HPM_P2
2022/06/15 00:00:46;;;;;;;;;13.75;13.50;;;;;25.09;48.71;99160.88;5013345;28;45482;-58
2022/06/15 00:03:13;;;;;;;;;19.00;15.75;;;;;25.03;48.72;99170.44;5012624;28;45427;-58
2022/06/15 00:05:42;;;;;;;;;13.50;13.00;;;;;24.99;48.68;99171.72;5013779;28;45437;-58
2022/06/15 00:08:08;;;;;;;;;14.50;14.00;;;;;24.94;48.58;99176.75;5012075;28;45478;-58
2022/06/15 00:10:34;;;;;;;;;14.75;14.25;;;;;24.91;49.02;99173.47;5012920;28;46267;-58
2022/06/15 00:12:59;;;;;;;;;13.75;11.50;;;;;24.88;49.30;99176.44;5013339;28;45486;-58
2022/06/15 00:15:24;;;;;;;;;14.00;14.00;;;;;24.81;49.32;99173.50;5014217;28;46100;-58
2022/06/15 00:17:50;;;;;;;;;13.00;12.00;;;;;24.79;49.62;99171.97;5013772;28;45431;-58
2022/06/15 00:20:15;;;;;;;;;13.50;13.50;;;;;24.74;49.49;99175.13;5007469;28;46379;-58
2022/06/15 00:22:41;;;;;;;;;15.25;13.75;;;;;24.70;49.96;99173.72;5013427;28;45535;-58
2022/06/15 00:25:08;;;;;;;;;11.50;11.50;;;;;24.67;49.97;99180.25;5014332;28;45602;-58
2022/06/15 00:27:34;;;;;;;;;12.25;12.25;;;;;24.65;50.29;99186.78;5013384;28;45564;-58
2022/06/15 00:29:59;;;;;;;;;13.75;13.00;;;;;24.63;50.21;99181.53;5014401;28;46160;-58
2022/06/15 00:32:25;;;;;;;;;15.75;13.25;;;;;24.60;50.37;99184.56;5029459;28;45365;-58
2022/06/15 00:34:50;;;;;;;;;11.00;11.00;;;;;24.58;50.23;99189.25;5014279;28;45469;-58
2022/06/15 00:37:15;;;;;;;;;12.00;12.00;;;;;24.56;50.46;99191.22;5013822;28;45427;-58
2022/06/15 00:39:41;;;;;;;;;14.75;14.00;;;;;24.55;50.48;99192.22;5014279;28;45451;-58
2022/06/15 00:42:06;;;;;;;;;14.25;13.25;;;;;24.53;50.33;99201.44;5013628;28;45337;-58
2022/06/15 00:44:34;;;;;;;;;13.75;13.75;;;;;24.52;50.71;99202.44;5013960;28;45386;-58
2022/06/15 00:47:05;;;;;;;;;14.00;13.50;;;;;24.48;50.56;99192.94;5013963;28;45571;-58
2022/06/15 00:49:34;;;;;;;;;14.75;13.50;;;;;24.45;50.87;99196.81;5013574;28;46366;-58
2022/06/15 00:52:04;;;;;;;;;17.00;16.00;;;;;24.43;50.79;99195.25;5013729;28;45545;-58
2022/06/15 00:54:30;;;;;;;;;15.00;14.50;;;;;24.39;50.76;99210.03;5014472;28;45454;-58
2022/06/15 00:56:56;;;;;;;;;14.50;14.50;;;;;24.35;50.90;99204.06;5009768;28;45512;-59
2022/06/15 00:59:48;;;;;;;;;16.50;16.00;;;;;24.30;51.27;99196.41;5014136;28;45480;-58
2022/06/15 01:02:13;;;;;;;;;15.00;12.25;;;;;24.25;51.33;99201.41;5012944;28;45414;-58
2022/06/15 01:04:47;;;;;;;;;15.50;13.00;;;;;24.22;51.40;99211.59;5014002;28;45811;-58
2022/06/15 01:07:42;;;;;;;;;9.75;9.25;;;;;24.14;51.44;99206.91;5013643;28;45514;-58
2022/06/15 01:10:16;;;;;;;;;18.25;15.00;;;;;24.09;52.08;99209.22;5013724;28;46334;-58
2022/06/15 01:12:41;;;;;;;;;17.75;15.50;;;;;24.05;52.26;99209.66;5013377;28;45468;-58
2022/06/15 01:15:34;;;;;;;;;15.25;13.75;;;;;24.01;52.16;99209.94;5014032;28;45446;-58
2022/06/15 01:18:02;;;;;;;;;13.25;13.25;;;;;23.99;52.25;99219.13;5012906;28;45314;-58
2022/06/15 01:20:37;;;;;;;;;13.75;13.75;;;;;23.96;52.64;99222.97;5015853;28;46109;-58
2022/06/15 01:23:11;;;;;;;;;14.50;13.50;;;;;23.95;52.16;99218.59;5016709;28;45416;-58
2022/06/15 01:25:39;;;;;;;;;15.50;14.00;;;;;23.95;52.40;99228.53;5016383;28;45458;-58
2022/06/15 01:28:05;;;;;;;;;17.75;17.75;;;;;23.93;52.21;99223.28;5016940;28;45475;-58
2022/06/15 01:30:46;;;;;;;;;17.75;16.25;;;;;23.92;52.50;99224.28;5017070;28;45376;-58
2022/06/15 01:33:22;;;;;;;;;14.25;14.25;;;;;23.89;52.59;99221.88;5016072;28;45533;-58
2022/06/15 01:36:03;;;;;;;;;16.75;16.75;;;;;23.89;52.86;99229.09;5016967;28;45468;-58
2022/06/15 01:38:48;;;;;;;;;18.75;17.50;;;;;23.86;52.66;99219.44;5014984;28;45469;-58
2022/06/15 01:41:55;;;;;;;;;17.75;17.00;;;;;23.83;52.66;99222.41;5016339;28;46491;-58
2022/06/15 01:44:30;;;;;;;;;25.75;22.50;;;;;23.79;52.65;99226.41;5004225;28;45490;-59
2022/06/15 01:46:59;;;;;;;;;20.75;20.50;;;;;23.78;53.33;99227.41;5016756;28;45585;-58
2022/06/15 01:49:30;;;;;;;;;26.00;25.50;;;;;23.79;52.97;99223.72;5015544;28;45616;-58
2022/06/15 01:51:59;;;;;;;;;24.75;24.25;;;;;23.81;52.95;99223.56;5016043;28;45573;-58
2022/06/15 01:54:28;;;;;;;;;21.75;21.75;;;;;23.79;53.14;99217.50;5016323;28;45441;-58
2022/06/15 01:56:55;;;;;;;;;15.50;15.00;;;;;23.75;52.58;99218.75;5016119;28;45499;-58
2022/06/15 01:59:31;;;;;;;;;18.00;16.00;;;;;23.66;53.26;99215.91;4997026;28;45501;-58
2022/06/15 02:02:08;;;;;;;;;17.75;15.75;;;;;23.61;52.89;99214.66;5016261;28;46271;-58
2022/06/15 02:04:41;;;;;;;;;18.00;18.00;;;;;23.55;53.33;99220.59;5016288;28;45428;-58
2022/06/15 02:07:37;;;;;;;;;17.50;17.50;;;;;23.47;53.54;99236.53;5015343;28;45434;-59
2022/06/15 02:10:09;;;;;;;;;18.75;16.75;;;;;23.38;53.60;99235.56;5013313;28;45534;-58
2022/06/15 02:12:46;;;;;;;;;18.75;17.75;;;;;23.32;53.76;99239.66;5012939;28;45580;-58
2022/06/15 02:15:15;;;;;;;;;21.00;21.00;;;;;23.26;53.92;99231.31;5016311;28;45446;-58
2022/06/15 02:17:48;;;;;;;;;17.00;17.00;;;;;23.24;54.06;99223.38;5015871;28;45430;-58
2022/06/15 02:20:20;;;;;;;;;17.75;16.75;;;;;23.28;53.94;99226.63;5008915;28;45467;-58
2022/06/15 02:22:49;;;;;;;;;17.00;17.00;;;;;23.35;54.41;99226.91;5015655;28;46362;-58
2022/06/15 02:25:19;;;;;;;;;20.50;20.00;;;;;23.38;54.30;99223.94;5016512;28;45348;-58
2022/06/15 02:27:45;;;;;;;;;20.50;18.25;;;;;23.37;54.06;99235.69;5015906;28;45379;-58
2022/06/15 02:30:18;;;;;;;;;23.00;21.50;;;;;23.29;54.37;99229.16;5016340;28;45501;-58
2022/06/15 02:32:45;;;;;;;;;20.50;19.25;;;;;23.25;53.99;99233.16;5014310;28;46567;-58
2022/06/15 02:35:11;;;;;;;;;18.50;17.50;;;;;23.20;54.47;99229.16;5016363;28;45544;-58
2022/06/15 02:37:36;;;;;;;;;23.25;22.00;;;;;23.18;54.78;99225.75;5015631;28;45497;-58
2022/06/15 02:40:02;;;;;;;;;24.25;24.25;;;;;23.17;54.25;99227.59;5007152;28;45510;-58
2022/06/15 02:42:36;;;;;;;;;27.33;24.00;;;;;23.18;54.48;99223.91;5013143;28;45554;-58
2022/06/15 02:45:28;;;;;;;;;25.50;23.25;;;;;23.14;54.96;99225.16;5015122;28;45731;-57
2022/06/15 02:47:54;;;;;;;;;21.75;20.50;;;;;23.04;54.82;99227.00;5015093;28;45477;-58
2022/06/15 02:50:22;;;;;;;;;22.25;19.25;;;;;23.00;54.99;99228.25;5014318;28;45541;-58
2022/06/15 02:53:02;;;;;;;;;20.25;18.75;;;;;22.96;55.44;99222.28;5015334;28;45608;-58
2022/06/15 02:55:28;;;;;;;;;24.00;19.75;;;;;22.91;54.85;99223.72;5015577;28;45339;-58
2022/06/15 02:58:08;;;;;;;;;14.25;13.00;;;;;22.87;55.71;99217.75;5014993;28;45438;-58
2022/06/15 03:00:34;;;;;;;;;21.50;20.00;;;;;22.87;55.45;99214.22;5011766;28;45438;-59
2022/06/15 03:03:00;;;;;;;;;19.75;19.00;;;;;22.87;55.19;99217.75;5014386;28;46658;-59
2022/06/15 03:05:25;;;;;;;;;26.33;22.67;;;;;22.90;55.13;99222.00;5015219;28;45492;-58
2022/06/15 03:07:51;;;;;;;;;28.75;27.00;;;;;22.88;55.63;99226.66;5015234;28;45399;-58
2022/06/15 03:10:16;;;;;;;;;26.00;25.00;;;;;22.85;54.99;99225.09;5015324;28;45609;-59
2022/06/15 03:12:42;;;;;;;;;25.75;21.00;;;;;22.86;55.59;99231.31;5014285;28;45598;-59
2022/06/15 03:15:10;;;;;;;;;23.25;21.50;;;;;22.87;55.37;99231.19;5014714;28;45426;-58
2022/06/15 03:17:35;;;;;;;;;24.33;22.00;;;;;22.90;56.28;99238.13;5015038;28;45583;-58
2022/06/15 03:20:01;;;;;;;;;17.75;17.25;;;;;22.86;55.94;99232.19;5015170;28;45391;-58
2022/06/15 03:22:26;;;;;;;;;19.75;19.75;;;;;22.84;56.21;99230.63;5014534;28;45508;-59
2022/06/15 03:24:52;;;;;;;;;18.00;18.00;;;;;22.80;55.65;99242.63;5014517;28;45377;-59
2022/06/15 03:27:18;;;;;;;;;21.00;20.50;;;;;22.80;55.71;99242.63;5015020;28;46051;-58
2022/06/15 03:29:45;;;;;;;;;18.75;18.75;;;;;22.80;55.65;99245.31;5014565;28;45462;-58
2022/06/15 03:32:14;;;;;;;;;22.00;17.75;;;;;22.83;55.77;99242.34;5014824;28;46117;-58
2022/06/15 03:34:39;;;;;;;;;21.00;19.25;;;;;22.81;56.30;99252.38;5012633;28;45507;-59
2022/06/15 03:37:05;;;;;;;;;20.75;20.00;;;;;22.78;55.91;99250.00;5014924;28;45396;-58
2022/06/15 03:39:30;;;;;;;;;23.75;21.00;;;;;22.76;56.30;99238.50;5014683;28;45581;-58
2022/06/15 03:42:16;;;;;;;;;21.00;20.00;;;;;22.76;56.00;99238.50;5014428;28;45493;-58
2022/06/15 03:44:42;;;;;;;;;20.50;20.50;;;;;22.74;56.20;99232.41;5010021;28;45569;-58
2022/06/15 03:47:17;;;;;;;;;20.75;18.00;;;;;22.73;56.08;99230.69;5014199;28;45367;-58
2022/06/15 03:49:44;;;;;;;;;23.50;22.50;;;;;22.70;56.59;99239.88;5010270;28;45407;-58
2022/06/15 03:52:10;;;;;;;;;23.33;21.33;;;;;22.70;56.74;99242.56;5014414;28;46186;-58
2022/06/15 03:54:36;;;;;;;;;24.67;23.33;;;;;22.71;56.99;99244.25;5014703;28;45506;-58
2022/06/15 03:57:02;;;;;;;;;24.33;23.67;;;;;22.71;57.54;99238.03;5014133;28;45573;-58
2022/06/15 03:59:29;;;;;;;;;24.25;24.00;;;;;22.69;57.32;99243.53;4996737;28;45384;-58
2022/06/15 04:01:54;;;;;;;;;26.67;25.67;;;;;22.70;56.98;99249.78;5013875;28;45590;-59
2022/06/15 04:04:20;;;;;;;;;31.33;28.00;;;;;22.69;57.62;99253.44;5014321;28;45442;-58
2022/06/15 04:06:46;;;;;;;;;25.67;24.67;;;;;22.66;57.61;99248.31;5014490;28;45545;-58
2022/06/15 04:09:12;;;;;;;;;26.00;25.00;;;;;22.64;57.54;99243.94;5014265;28;45507;-59
2022/06/15 04:14:21;;;;;;;;;24.00;19.67;;;;;22.64;57.02;99238.56;5011868;28;45580;-58
2022/06/15 04:16:53;;;;;;;;;23.00;23.00;;;;;22.64;57.10;99245.78;5013498;28;45642;-58
2022/06/15 04:19:19;;;;;;;;;23.00;20.33;;;;;22.61;57.57;99232.63;5013652;28;45415;-58
2022/06/15 04:21:45;;;;;;;;;26.00;23.25;;;;;22.61;57.45;99238.84;5013890;28;46597;-58
2022/06/15 04:24:11;;;;;;;;;27.67;25.00;;;;;22.61;57.05;99227.25;5013982;28;45474;-58
2022/06/15 04:26:38;;;;;;;;;31.67;27.00;;;;;22.61;57.41;99233.47;5014535;28;45502;-59
2022/06/15 04:29:04;;;;;;;;;32.67;29.33;;;;;22.62;57.36;99231.66;5013373;28;45477;-58
2022/06/15 04:31:29;;;;;;;;;35.67;32.67;;;;;22.62;57.37;99229.78;5015010;28;46555;-59
2022/06/15 04:33:55;;;;;;;;;31.67;30.33;;;;;22.66;58.02;99225.00;5013090;28;45389;-58
2022/06/15 04:36:23;;;;;;;;;31.00;29.33;;;;;22.70;57.89;99220.19;5014683;28;45500;-58
2022/06/15 04:38:49;;;;;;;;;37.33;31.67;;;;;22.74;57.41;99216.25;5012435;28;45449;-58
2022/06/15 04:41:14;;;;;;;;;39.00;33.00;;;;;22.78;57.43;99223.13;5010476;28;45828;-58
2022/06/15 04:43:39;;;;;;;;;36.33;32.67;;;;;22.82;57.50;99214.63;5002692;28;45457;-58
2022/06/15 04:46:05;;;;;;;;;33.67;30.33;;;;;22.85;57.06;99221.56;5011622;28;45500;-59
2022/06/15 04:48:30;;;;;;;;;32.33;29.33;;;;;22.87;57.17;99222.28;5012686;28;45350;-58
2022/06/15 04:50:56;;;;;;;;;34.00;32.00;;;;;22.90;56.90;99214.78;5012602;28;45662;-58
2022/06/15 04:53:21;;;;;;;;;29.67;27.00;;;;;22.94;57.29;99212.69;5012749;28;45524;-58
2022/06/15 04:55:47;;;;;;;;;35.00;30.67;;;;;22.98;57.18;99212.25;5016282;28;45607;-58
2022/06/15 04:58:12;;;;;;;;;38.33;33.67;;;;;23.04;57.43;99210.88;5015935;28;45418;-58
2022/06/15 05:00:40;;;;;;;;;39.33;33.67;;;;;23.09;57.25;99208.63;5015713;28;47122;-58
2022/06/15 05:03:06;;;;;;;;;45.67;36.67;;;;;23.17;56.75;99213.28;5015479;28;45447;-59
2022/06/15 05:05:32;;;;;;;;;41.33;35.33;;;;;23.22;56.68;99213.72;5017382;28;45445;-58
2022/06/15 05:07:58;;;;;;;;;47.33;39.67;;;;;23.27;56.84;99219.56;5015833;28;45486;-58
2022/06/15 05:10:25;;;;;;;;;46.00;35.67;;;;;23.31;56.69;99212.88;5016598;28;45383;-58
2022/06/15 05:12:52;;;;;;;;;48.33;35.67;;;;;23.36;56.20;99218.69;5015515;28;45550;-58
2022/06/15 05:15:17;;;;;;;;;40.33;35.33;;;;;23.39;56.48;99213.03;5017064;28;45425;-63
2022/06/15 05:17:45;;;;;;;;;40.33;33.33;;;;;23.45;56.56;99219.72;5015687;28;45591;-59
2022/06/15 05:20:13;;;;;;;;;37.00;33.33;;;;;23.50;56.62;99217.44;5011633;28;46121;-59
2022/06/15 05:22:39;;;;;;;;;38.00;33.33;;;;;23.54;56.28;99230.50;5015077;28;45379;-59
2022/06/15 05:25:07;;;;;;;;;32.67;30.33;;;;;23.58;55.83;99223.00;5016624;28;46099;-59
2022/06/15 05:27:33;;;;;;;;;38.33;34.00;;;;;23.61;55.48;99226.28;5015557;28;45516;-58
2022/06/15 05:29:59;;;;;;;;;38.33;32.33;;;;;23.65;55.68;99219.59;5015905;28;45582;-58
2022/06/15 05:32:24;;;;;;;;;35.00;31.33;;;;;23.69;55.37;99222.84;5015384;28;45445;-58
2022/06/15 05:34:50;;;;;;;;;39.67;33.33;;;;;23.74;55.07;99225.97;5016052;28;45516;-58
2022/06/15 05:37:15;;;;;;;;;33.00;30.00;;;;;23.78;55.17;99224.72;5015887;28;45434;-58
2022/06/15 05:39:41;;;;;;;;;36.33;33.33;;;;;23.84;54.94;99226.81;5016285;28;46609;-58
2022/06/15 05:42:06;;;;;;;;;34.33;29.33;;;;;23.84;55.52;99223.28;5015356;28;45462;-59
2022/06/15 05:46:59;;;;;;;;;29.67;28.67;;;;;23.87;55.26;99209.53;5015695;28;45462;-58
2022/06/15 05:49:25;;;;;;;;;32.33;30.00;;;;;23.91;55.35;99216.34;5013819;28;46357;-58
2022/06/15 05:51:51;;;;;;;;;31.33;29.67;;;;;23.95;55.46;99213.22;5014995;28;45636;-58
2022/06/15 05:54:17;;;;;;;;;34.33;31.00;;;;;24.00;55.40;99212.75;5016076;28;45406;-58
2022/06/15 05:56:43;;;;;;;;;30.67;26.33;;;;;24.06;55.05;99222.13;5014922;28;45648;-59
2022/06/15 05:59:08;;;;;;;;;34.00;31.00;;;;;24.11;54.92;99219.84;5014878;28;45437;-58
2022/06/15 06:01:36;;;;;;;;;23.33;22.33;;;;;24.16;54.50;99215.72;5015283;28;45474;-59
2022/06/15 06:04:02;;;;;;;;;31.00;27.00;;;;;24.22;54.70;99215.13;5013943;28;45423;-59
2022/06/15 06:06:29;;;;;;;;;32.00;29.67;;;;;24.29;54.28;99212.75;5013728;28;45305;-58
2022/06/15 06:08:55;;;;;;;;;24.67;24.33;;;;;24.36;54.29;99205.78;5014476;28;45543;-59
2022/06/15 06:11:21;;;;;;;;;24.50;22.75;;;;;24.45;54.33;99215.69;5014397;28;45559;-59
2022/06/15 06:13:48;;;;;;;;;27.67;25.33;;;;;24.56;54.25;99222.72;4993488;28;45490;-58
2022/06/15 06:16:14;;;;;;;;;26.75;24.75;;;;;24.65;53.68;99225.38;5014624;28;45300;-59
2022/06/15 06:18:40;;;;;;;;;26.00;26.00;;;;;24.75;53.44;99224.50;5014579;28;45454;-59
2022/06/15 06:21:05;;;;;;;;;27.50;27.25;;;;;24.79;53.04;99234.00;5014651;28;45494;-59
2022/06/15 06:23:35;;;;;;;;;24.25;22.75;;;;;24.82;52.41;99230.97;5014132;28;45422;-59
2022/06/15 06:26:01;;;;;;;;;26.00;23.67;;;;;24.84;52.34;99240.63;5014824;28;45442;-59
2022/06/15 06:28:35;;;;;;;;;25.00;21.50;;;;;24.86;51.64;99235.94;5000543;28;46265;-59
2022/06/15 06:31:03;;;;;;;;;22.50;21.00;;;;;24.90;51.85;99233.78;5014291;28;45407;-59
2022/06/15 06:33:32;;;;;;;;;20.25;20.25;;;;;24.98;52.01;99231.22;5012612;28;45440;-59
2022/06/15 06:36:05;;;;;;;;;21.25;20.25;;;;;25.04;52.00;99234.16;5013883;28;45328;-59
2022/06/15 06:38:31;;;;;;;;;21.50;20.25;;;;;25.13;51.72;99243.22;5013886;28;45607;-59
2022/06/15 06:40:57;;;;;;;;;23.25;21.75;;;;;25.19;51.58;99244.44;5014773;28;45431;-59
2022/06/15 06:43:23;;;;;;;;;23.25;22.50;;;;;25.25;51.39;99246.56;5013959;28;45455;-59
2022/06/15 06:45:49;;;;;;;;;25.50;24.75;;;;;25.30;51.06;99250.47;5014555;28;45659;-59
2022/06/15 06:48:15;;;;;;;;;22.75;22.75;;;;;25.34;51.23;99264.53;5013280;28;45451;-59
2022/06/15 06:50:41;;;;;;;;;26.33;26.33;;;;;25.44;51.07;99267.19;5013347;28;45510;-63
2022/06/15 06:53:11;;;;;;;;;35.33;32.00;;;;;25.55;51.10;99267.81;5013853;28;45490;-59
2022/06/15 06:55:37;;;;;;;;;23.25;22.25;;;;;25.66;50.58;99273.00;5014497;28;45584;-59
2022/06/15 06:58:04;;;;;;;;;24.25;23.00;;;;;25.78;50.12;99276.34;5014220;28;45665;-59
2022/06/15 07:00:31;;;;;;;;;23.25;22.00;;;;;25.89;50.22;99281.50;5013634;28;45380;-59
2022/06/15 07:03:01;;;;;;;;;23.00;20.50;;;;;26.01;50.11;99276.69;5012896;28;45610;-59
2022/06/15 07:05:28;;;;;;;;;21.25;20.25;;;;;26.13;49.56;99275.47;4996646;28;45589;-59
2022/06/15 07:07:53;;;;;;;;;24.75;24.00;;;;;26.24;49.26;99287.88;5013409;28;46353;-59
2022/06/15 07:10:19;;;;;;;;;21.75;19.00;;;;;26.32;49.23;99285.25;5013843;28;45353;-59
2022/06/15 07:12:44;;;;;;;;;18.25;17.75;;;;;26.41;48.87;99278.94;5014023;28;45534;-59
2022/06/15 07:15:12;;;;;;;;;24.25;20.75;;;;;26.52;48.87;99292.16;4992005;28;45500;-59
2022/06/15 07:17:38;;;;;;;;;22.25;21.75;;;;;26.65;48.56;99291.75;5007318;28;45473;-60
2022/06/15 07:20:04;;;;;;;;;23.75;22.75;;;;;26.76;48.17;99292.34;4995487;28;45699;-59
2022/06/15 07:22:30;;;;;;;;;20.75;19.75;;;;;26.89;48.11;99289.19;5013187;28;45492;-59
2022/06/15 07:24:56;;;;;;;;;21.50;20.75;;;;;27.05;47.74;99288.44;4991777;28;45446;-59
2022/06/15 07:27:23;;;;;;;;;19.25;19.25;;;;;27.21;47.28;99293.09;5006407;28;46023;-59
2022/06/15 07:29:49;;;;;;;;;20.25;18.25;;;;;27.28;46.60;99286.88;5014112;28;45371;-59
2022/06/15 07:32:15;;;;;;;;;18.50;18.00;;;;;27.31;46.16;99278.44;5014272;28;45634;-59
2022/06/15 07:34:41;;;;;;;;;16.25;16.25;;;;;27.40;45.95;99265.75;5012413;28;45591;-59
2022/06/15 07:37:07;;;;;;;;;16.75;14.25;;;;;27.42;45.21;99275.41;5014091;28;46502;-59
2022/06/15 07:39:34;;;;;;;;;21.00;19.00;;;;;27.47;45.80;99295.72;4996151;28;45495;-59
2022/06/15 07:42:01;;;;;;;;;18.50;18.50;;;;;27.48;45.58;99294.72;5014089;28;45681;-59
2022/06/15 07:44:27;;;;;;;;;18.00;17.50;;;;;27.48;45.10;99292.88;5014806;28;45420;-59
2022/06/15 07:49:55;;;;;;;;;18.75;18.50;;;;;27.63;45.53;99293.09;4983065;28;45618;-58
2022/06/15 07:52:29;;;;;;;;;21.75;20.25;;;;;27.62;45.04;99294.97;5011978;28;45410;-59
2022/06/15 07:54:55;;;;;;;;;20.25;17.00;;;;;27.61;44.90;99304.09;5014314;28;45565;-59
2022/06/15 07:57:21;;;;;;;;;18.50;18.00;;;;;27.63;44.49;99301.22;5013838;28;46408;-59
2022/06/15 07:59:46;;;;;;;;;18.25;18.25;;;;;27.70;44.91;99311.22;5013417;28;45482;-59
2022/06/15 08:02:12;;;;;;;;;16.50;16.50;;;;;27.77;44.66;99316.84;5013753;28;45513;-59
2022/06/15 08:04:38;;;;;;;;;16.75;16.75;;;;;27.78;44.54;99318.53;5013908;28;45452;-59
2022/06/15 08:07:07;;;;;;;;;19.25;18.25;;;;;27.75;44.71;99319.72;5013741;28;46369;-59
2022/06/15 08:09:32;;;;;;;;;18.75;16.50;;;;;27.58;44.34;99309.84;5013961;28;45552;-59
2022/06/15 08:12:15;;;;;;;;;20.25;17.50;;;;;27.41;44.97;99298.06;5012081;28;45439;-59
2022/06/15 08:14:44;;;;;;;;;20.50;19.50;;;;;27.38;44.71;99306.53;5012293;28;45416;-59
2022/06/15 08:17:41;;;;;;;;;20.25;19.50;;;;;27.35;45.09;99306.84;5013259;28;46599;-59
2022/06/15 08:20:18;;;;;;;;;20.50;18.00;;;;;27.33;44.41;99314.28;4991278;28;45460;-59
2022/06/15 08:22:47;;;;;;;;;19.00;19.00;;;;;27.40;43.79;99317.19;5028923;28;45448;-59
2022/06/15 08:25:16;;;;;;;;;18.00;18.00;;;;;27.48;44.47;99313.69;5011677;28;45414;-59
2022/06/15 08:27:43;;;;;;;;;18.50;16.25;;;;;27.53;44.02;99317.56;5012954;28;45536;-59
2022/06/15 08:30:11;;;;;;;;;19.75;18.50;;;;;27.59;44.31;99306.13;5012760;28;45308;-59
2022/06/15 08:32:38;;;;;;;;;19.25;19.25;;;;;27.73;43.91;99313.59;5012810;28;45409;-58
2022/06/15 08:35:05;;;;;;;;;15.75;15.75;;;;;27.85;44.40;99306.00;5013755;28;45677;-59
2022/06/15 08:37:31;;;;;;;;;16.75;16.75;;;;;27.99;44.65;99309.91;5012919;28;45599;-59
2022/06/15 08:39:57;;;;;;;;;17.25;16.25;;;;;28.11;45.20;99322.97;5012895;28;45441;-59
2022/06/15 08:42:50;;;;;;;;;22.00;19.75;;;;;28.25;44.40;99345.91;5013126;28;45334;-59
2022/06/15 08:45:36;;;;;;;;;20.75;19.75;;;;;28.35;44.77;99343.00;5011476;28;45518;-59
2022/06/15 08:48:24;;;;;;;;;19.50;16.25;;;;;28.46;43.82;99329.97;5010903;28;46260;-59
2022/06/15 08:50:57;;;;;;;;;19.25;18.25;;;;;28.59;43.39;99309.59;5013524;28;45536;-59
2022/06/15 08:53:44;;;;;;;;;22.25;19.25;;;;;28.66;43.97;99294.31;5012738;28;45416;-59
2022/06/15 08:56:15;;;;;;;;;21.00;19.00;;;;;28.74;43.80;99284.31;5010636;28;45450;-59
2022/06/15 08:59:04;;;;;;;;;19.75;17.75;;;;;28.81;43.82;99301.63;5012490;28;45725;-59
2022/06/15 09:02:00;;;;;;;;;21.50;18.75;;;;;28.90;43.42;99312.44;4971721;28;45515;-59
2022/06/15 09:05:01;;;;;;;;;19.50;19.50;;;;;28.93;43.59;99320.25;5010248;28;45442;-59
2022/06/15 09:07:51;;;;;;;;;17.25;16.25;;;;;28.94;43.53;99321.94;5012121;28;45651;-59
2022/06/15 09:10:25;;;;;;;;;17.50;15.50;;;;;28.96;42.89;99334.34;5011779;28;47300;-59
2022/06/15 09:13:20;;;;;;;;;20.75;18.50;;;;;28.81;42.33;99339.63;5012247;28;45430;-59
2022/06/15 09:16:03;;;;;;;;;17.25;16.25;;;;;28.65;42.32;99346.91;5012895;28;45380;-59
2022/06/15 09:18:46;;;;;;;;;17.75;17.75;;;;;28.56;42.31;99345.22;5011595;28;45364;-59
2022/06/15 09:21:22;;;;;;;;;17.25;13.50;;;;;28.50;42.63;99338.59;5012233;28;46136;-59
2022/06/15 09:23:57;;;;;;;;;19.50;17.50;;;;;28.49;42.81;99336.88;5012365;28;45410;-59
2022/06/15 09:26:36;;;;;;;;;18.00;16.75;;;;;28.44;42.64;99334.72;5010955;28;45379;-59
2022/06/15 09:29:07;;;;;;;;;18.75;18.25;;;;;28.41;42.97;99326.91;5009283;28;45536;-59
2022/06/15 09:31:42;;;;;;;;;23.75;19.25;;;;;28.37;43.06;99333.69;5012816;28;45523;-59
2022/06/15 09:34:13;;;;;;;;;22.75;18.50;;;;;28.35;42.72;99343.84;5011457;28;45567;-59
2022/06/15 09:36:46;;;;;;;;;20.00;18.25;;;;;28.31;43.36;99347.94;5013337;28;45400;-59
2022/06/15 09:39:13;;;;;;;;;20.00;19.25;;;;;28.26;43.55;99325.06;5012377;28;45467;-59
2022/06/15 09:41:41;;;;;;;;;24.00;19.50;;;;;28.22;43.92;99320.97;5015095;28;45533;-59
2022/06/15 09:44:10;;;;;;;;;19.50;17.75;;;;;28.19;43.91;99321.28;4996789;28;45489;-59
2022/06/15 09:46:43;;;;;;;;;21.50;19.50;;;;;28.19;43.97;99315.84;5015037;28;45562;-59
2022/06/15 09:49:08;;;;;;;;;17.75;16.00;;;;;28.25;44.21;99309.78;5014679;28;45545;-59
2022/06/15 09:51:54;;;;;;;;;20.00;18.25;;;;;28.33;43.69;99307.91;5015870;28;45454;-59
2022/06/15 09:54:20;;;;;;;;;20.50;18.25;;;;;28.43;43.62;99315.91;5014442;28;45463;-59
2022/06/15 09:56:47;;;;;;;;;21.50;17.25;;;;;28.59;43.58;99332.16;5015623;28;45459;-58
2022/06/15 09:59:19;;;;;;;;;22.75;20.25;;;;;28.72;43.88;99329.75;5015834;28;45421;-58
2022/06/15 10:01:45;;;;;;;;;20.00;20.00;;;;;28.73;43.07;99315.16;5013427;28;45725;-58
2022/06/15 10:04:31;;;;;;;;;22.25;20.00;;;;;28.74;42.94;99310.59;5014712;28;45450;-58
2022/06/15 10:07:04;;;;;;;;;21.50;20.50;;;;;28.66;42.66;99325.00;5015400;28;45455;-59
2022/06/15 10:09:35;;;;;;;;;23.50;21.00;;;;;28.58;43.89;99325.03;5014021;28;45582;-59
2022/06/15 10:15:15;;;;;;;;;22.50;20.25;;;;;28.50;43.11;99311.47;5015320;28;45446;-58
2022/06/15 10:17:46;;;;;;;;;21.00;20.50;;;;;28.65;42.91;99303.50;5014370;28;45476;-58
2022/06/15 10:20:41;;;;;;;;;17.25;15.50;;;;;28.81;42.85;99285.34;5015485;28;45603;-58
2022/06/15 10:23:20;;;;;;;;;24.25;22.25;;;;;28.89;42.68;99284.47;5005776;28;47018;-58
2022/06/15 10:25:55;;;;;;;;;19.75;18.00;;;;;29.06;43.31;99298.81;5014783;28;45488;-58
2022/06/15 10:28:24;;;;;;;;;22.75;19.50;;;;;29.18;41.59;99289.25;5014621;28;45467;-58
2022/06/15 10:30:58;;;;;;;;;22.75;20.25;;;;;29.24;42.22;99283.16;5014553;28;45374;-58
2022/06/15 10:33:33;;;;;;;;;19.25;17.75;;;;;29.38;42.01;99290.53;5013541;28;46348;-58
2022/06/15 10:35:59;;;;;;;;;22.75;21.25;;;;;29.51;42.01;99276.41;5014911;28;45571;-58
2022/06/15 10:38:27;;;;;;;;;19.00;16.50;;;;;29.55;41.59;99272.31;5014491;28;45532;-58
2022/06/15 10:40:58;;;;;;;;;18.25;16.25;;;;;29.63;41.83;99272.28;5013469;28;45564;-58
2022/06/15 10:43:32;;;;;;;;;16.25;16.25;;;;;29.85;41.72;99285.03;5014048;28;45519;-58
2022/06/15 10:46:04;;;;;;;;;23.50;21.50;;;;;29.89;41.15;99285.50;5014339;28;45367;-58
2022/06/15 10:48:46;;;;;;;;;19.00;19.00;;;;;29.82;41.35;99262.81;5008370;28;45500;-58
2022/06/15 10:51:18;;;;;;;;;22.75;21.00;;;;;29.75;41.50;99259.97;5013198;28;45339;-58
2022/06/15 10:53:50;;;;;;;;;23.75;21.00;;;;;29.79;41.56;99258.56;5014277;28;46294;-58
2022/06/15 11:02:17;;;;;;;;;20.75;18.25;;;;;29.73;40.51;99255.72;5012950;28;45463;-58
2022/06/15 11:04:46;;;;;;;;;17.25;17.00;;;;;29.73;40.34;99247.56;5014616;28;45450;-58
2022/06/15 11:07:29;;;;;;;;;22.75;21.50;;;;;29.70;40.51;99258.78;5014073;28;45347;-58
2022/06/15 11:09:54;;;;;;;;;20.00;18.25;;;;;29.68;40.96;99249.97;5011602;28;45533;-60
2022/06/15 11:12:39;;;;;;;;;19.00;18.00;;;;;29.66;40.97;99254.78;5014336;28;46241;-60
2022/06/15 11:15:04;;;;;;;;;20.75;19.00;;;;;29.60;41.17;99247.31;5013498;28;46553;-60
2022/06/15 11:20:41;;;;;;;;;18.25;18.00;;;;;29.73;40.96;99240.25;5014937;28;45548;-60
2022/06/15 11:23:35;;;;;;;;;20.75;20.25;;;;;29.86;41.00;99245.94;5014156;28;45702;-58
2022/06/15 11:29:32;;;;;;;;;18.00;17.50;;;;;30.02;40.67;99241.41;5013385;28;45508;-60
2022/06/15 11:32:05;;;;;;;;;20.00;19.00;;;;;30.06;40.37;99230.00;5014539;28;45492;-58
2022/06/15 11:34:37;;;;;;;;;18.25;14.00;;;;;30.12;39.47;99225.72;5012541;28;45410;-58
2022/06/15 11:37:17;;;;;;;;;26.50;21.50;;;;;30.09;39.54;99221.47;5013686;28;47485;-58
2022/06/15 11:39:48;;;;;;;;;25.00;22.75;;;;;30.16;40.15;99227.03;5013935;28;45412;-58
2022/06/15 11:42:17;;;;;;;;;25.00;21.25;;;;;30.32;39.99;99231.50;5013724;28;45425;-58
2022/06/15 11:44:45;;;;;;;;;19.25;18.50;;;;;30.43;39.15;99220.13;5013641;28;45486;-58
2022/06/15 11:47:13;;;;;;;;;20.00;17.75;;;;;30.51;39.65;99222.75;5013535;28;45488;-58
2022/06/15 11:49:41;;;;;;;;;18.00;17.50;;;;;30.58;39.31;99218.31;5013286;28;45472;-59
2022/06/15 11:52:27;;;;;;;;;20.00;19.00;;;;;30.64;39.03;99217.56;5014165;28;45472;-58
2022/06/15 11:55:08;;;;;;;;;18.75;18.75;;;;;30.75;39.40;99213.53;5013641;28;45367;-59